sensor_id;sensor_type;location;lat;lon;timestamp;temperature;humidity
52849;DHT22;38714;53.180;5.812;2023-02-28T00:00:12;4.40;99.90
52849;DHT22;38714;53.180;5.812;2023-02-28T00:02:42;4.40;99.90
52849;DHT22;38714;53.180;5.812;2023-02-28T00:05:10;4.40;99.90
52849;DHT22;38714;53.180;5.812;2023-02-28T00:07:36;4.40;99.90
52849;DHT22;38714;53.180;5.812;2023-02-28T00:10:03;4.40;99.90
52849;DHT22;38714;53.180;5.812;2023-02-28T00:12:29;4.40;99.90
52849;DHT22;38714;53.180;5.812;2023-02-28T00:14:55;4.40;99.90
52849;DHT22;38714;53.180;5.812;2023-02-28T00:17:20;4.40;99.90
52849;DHT22;38714;53.180;5.812;2023-02-28T00:19:50;4.40;99.90
52849;DHT22;38714;53.180;5.812;2023-02-28T00:22:20;4.40;99.90
52849;DHT22;38714;53.180;5.812;2023-02-28T00:24:46;4.40;99.90
52849;DHT22;38714;53.180;5.812;2023-02-28T00:27:13;4.40;99.90
52849;DHT22;38714;53.180;5.812;2023-02-28T00:29:39;4.40;99.90
52849;DHT22;38714;53.180;5.812;2023-02-28T00:32:05;4.40;99.90
52849;DHT22;38714;53.180;5.812;2023-02-28T00:34:32;4.40;99.90
52849;DHT22;38714;53.180;5.812;2023-02-28T00:37:07;4.40;99.90
52849;DHT22;38714;53.180;5.812;2023-02-28T00:39:35;4.40;99.90
52849;DHT22;38714;53.180;5.812;2023-02-28T00:42:02;4.50;99.90
52849;DHT22;38714;53.180;5.812;2023-02-28T00:44:28;4.50;99.90
52849;DHT22;38714;53.180;5.812;2023-02-28T00:46:54;4.50;99.90
52849;DHT22;38714;53.180;5.812;2023-02-28T00:49:21;4.50;99.90
52849;DHT22;38714;53.180;5.812;2023-02-28T00:51:46;4.50;99.90
52849;DHT22;38714;53.180;5.812;2023-02-28T00:54:12;4.50;99.90
52849;DHT22;38714;53.180;5.812;2023-02-28T00:56:37;4.60;99.90
52849;DHT22;38714;53.180;5.812;2023-02-28T00:59:03;4.50;99.90
52849;DHT22;38714;53.180;5.812;2023-02-28T01:01:29;4.50;99.90
52849;DHT22;38714;53.180;5.812;2023-02-28T01:03:54;4.60;99.90
52849;DHT22;38714;53.180;5.812;2023-02-28T01:06:20;4.60;99.90
52849;DHT22;38714;53.180;5.812;2023-02-28T01:08:45;4.60;99.90
52849;DHT22;38714;53.180;5.812;2023-02-28T01:11:14;4.60;99.90
52849;DHT22;38714;53.180;5.812;2023-02-28T01:13:40;4.60;99.90
52849;DHT22;38714;53.180;5.812;2023-02-28T01:16:06;4.60;99.90
52849;DHT22;38714;53.180;5.812;2023-02-28T01:18:32;4.70;99.90
52849;DHT22;38714;53.180;5.812;2023-02-28T01:20:57;4.70;99.90
52849;DHT22;38714;53.180;5.812;2023-02-28T01:23:24;4.70;99.90
52849;DHT22;38714;53.180;5.812;2023-02-28T01:25:50;4.70;99.90
52849;DHT22;38714;53.180;5.812;2023-02-28T01:28:16;4.70;99.90
52849;DHT22;38714;53.180;5.812;2023-02-28T01:30:42;4.70;99.90
52849;DHT22;38714;53.180;5.812;2023-02-28T01:33:07;4.70;99.90
52849;DHT22;38714;53.180;5.812;2023-02-28T01:35:35;4.70;99.90
52849;DHT22;38714;53.180;5.812;2023-02-28T01:38:01;4.70;99.90
52849;DHT22;38714;53.180;5.812;2023-02-28T01:40:27;4.70;99.90
52849;DHT22;38714;53.180;5.812;2023-02-28T01:42:52;4.70;99.90
52849;DHT22;38714;53.180;5.812;2023-02-28T01:45:29;4.70;99.90
52849;DHT22;38714;53.180;5.812;2023-02-28T01:48:02;4.70;99.90
52849;DHT22;38714;53.180;5.812;2023-02-28T01:50:33;4.70;99.90
52849;DHT22;38714;53.180;5.812;2023-02-28T01:53:01;4.70;99.90
52849;DHT22;38714;53.180;5.812;2023-02-28T01:55:28;4.60;99.90
52849;DHT22;38714;53.180;5.812;2023-02-28T01:57:57;4.70;99.90
52849;DHT22;38714;53.180;5.812;2023-02-28T02:00:25;4.70;99.90
52849;DHT22;38714;53.180;5.812;2023-02-28T02:02:55;4.70;99.90
52849;DHT22;38714;53.180;5.812;2023-02-28T02:05:24;4.70;99.90
52849;DHT22;38714;53.180;5.812;2023-02-28T02:07:54;4.60;99.90
52849;DHT22;38714;53.180;5.812;2023-02-28T02:10:40;4.70;99.90
52849;DHT22;38714;53.180;5.812;2023-02-28T02:18:33;4.70;99.90
52849;DHT22;38714;53.180;5.812;2023-02-28T02:35:05;4.80;99.90
52849;DHT22;38714;53.180;5.812;2023-02-28T02:40:17;4.80;99.90
52849;DHT22;38714;53.180;5.812;2023-02-28T02:43:39;4.80;99.90
52849;DHT22;38714;53.180;5.812;2023-02-28T02:45:48;4.80;99.90
52849;DHT22;38714;53.180;5.812;2023-02-28T02:48:20;4.90;99.90
52849;DHT22;38714;53.180;5.812;2023-02-28T02:50:53;4.90;99.90
52849;DHT22;38714;53.180;5.812;2023-02-28T02:53:24;4.90;99.90
52849;DHT22;38714;53.180;5.812;2023-02-28T02:55:53;4.90;99.90
52849;DHT22;38714;53.180;5.812;2023-02-28T02:58:22;4.90;99.90
52849;DHT22;38714;53.180;5.812;2023-02-28T03:00:53;4.90;99.90
52849;DHT22;38714;53.180;5.812;2023-02-28T03:03:20;4.90;99.90
52849;DHT22;38714;53.180;5.812;2023-02-28T03:05:58;5.00;99.90
52849;DHT22;38714;53.180;5.812;2023-02-28T03:08:25;5.00;99.90
52849;DHT22;38714;53.180;5.812;2023-02-28T03:10:56;5.00;99.90
52849;DHT22;38714;53.180;5.812;2023-02-28T03:14:19;5.00;99.90
52849;DHT22;38714;53.180;5.812;2023-02-28T03:27:25;5.00;99.90
52849;DHT22;38714;53.180;5.812;2023-02-28T03:35:21;5.00;99.90
52849;DHT22;38714;53.180;5.812;2023-02-28T03:37:52;5.10;99.90
52849;DHT22;38714;53.180;5.812;2023-02-28T03:40:23;5.10;99.90
52849;DHT22;38714;53.180;5.812;2023-02-28T03:42:55;5.10;99.90
52849;DHT22;38714;53.180;5.812;2023-02-28T03:45:26;5.10;99.90
52849;DHT22;38714;53.180;5.812;2023-02-28T03:48:03;5.10;99.90
52849;DHT22;38714;53.180;5.812;2023-02-28T03:50:37;5.10;99.90
52849;DHT22;38714;53.180;5.812;2023-02-28T03:53:12;5.10;99.90
52849;DHT22;38714;53.180;5.812;2023-02-28T03:55:44;5.10;99.90
52849;DHT22;38714;53.180;5.812;2023-02-28T03:58:49;5.10;99.90
52849;DHT22;38714;53.180;5.812;2023-02-28T04:01:41;5.10;99.90
52849;DHT22;38714;53.180;5.812;2023-02-28T04:04:09;5.10;99.90
52849;DHT22;38714;53.180;5.812;2023-02-28T04:06:35;5.10;99.90
52849;DHT22;38714;53.180;5.812;2023-02-28T04:09:01;5.10;99.90
52849;DHT22;38714;53.180;5.812;2023-02-28T04:13:58;5.10;99.90
52849;DHT22;38714;53.180;5.812;2023-02-28T04:16:23;5.10;99.90
52849;DHT22;38714;53.180;5.812;2023-02-28T04:18:49;5.10;99.90
52849;DHT22;38714;53.180;5.812;2023-02-28T04:21:15;5.10;99.90
52849;DHT22;38714;53.180;5.812;2023-02-28T04:23:40;5.10;99.90
52849;DHT22;38714;53.180;5.812;2023-02-28T04:26:06;5.10;99.90
52849;DHT22;38714;53.180;5.812;2023-02-28T04:28:32;5.10;99.90
52849;DHT22;38714;53.180;5.812;2023-02-28T04:31:01;5.20;99.90
52849;DHT22;38714;53.180;5.812;2023-02-28T04:33:27;5.20;99.90
52849;DHT22;38714;53.180;5.812;2023-02-28T04:36:05;5.10;99.90
52849;DHT22;38714;53.180;5.812;2023-02-28T04:38:36;5.10;99.90
52849;DHT22;38714;53.180;5.812;2023-02-28T04:41:03;5.20;99.90
52849;DHT22;38714;53.180;5.812;2023-02-28T04:43:29;5.10;99.90
52849;DHT22;38714;53.180;5.812;2023-02-28T04:45:56;5.20;99.90
52849;DHT22;38714;53.180;5.812;2023-02-28T04:48:27;5.20;99.90
52849;DHT22;38714;53.180;5.812;2023-02-28T04:50:53;5.20;99.90
52849;DHT22;38714;53.180;5.812;2023-02-28T04:53:19;5.20;99.90
52849;DHT22;38714;53.180;5.812;2023-02-28T04:55:45;5.20;99.90
52849;DHT22;38714;53.180;5.812;2023-02-28T04:58:12;5.20;99.90
52849;DHT22;38714;53.180;5.812;2023-02-28T05:00:38;5.30;99.90
52849;DHT22;38714;53.180;5.812;2023-02-28T05:03:03;5.30;99.90
52849;DHT22;38714;53.180;5.812;2023-02-28T05:05:29;5.20;99.90
52849;DHT22;38714;53.180;5.812;2023-02-28T05:07:55;5.30;99.90
52849;DHT22;38714;53.180;5.812;2023-02-28T05:10:22;5.30;99.90
52849;DHT22;38714;53.180;5.812;2023-02-28T05:12:48;5.30;99.90
52849;DHT22;38714;53.180;5.812;2023-02-28T05:15:15;5.30;99.90
52849;DHT22;38714;53.180;5.812;2023-02-28T05:17:41;5.30;99.90
52849;DHT22;38714;53.180;5.812;2023-02-28T05:20:07;5.30;99.90
52849;DHT22;38714;53.180;5.812;2023-02-28T05:22:36;5.30;99.90
52849;DHT22;38714;53.180;5.812;2023-02-28T05:25:03;5.30;99.90
52849;DHT22;38714;53.180;5.812;2023-02-28T05:27:30;5.30;99.90
52849;DHT22;38714;53.180;5.812;2023-02-28T05:29:55;5.30;99.90
52849;DHT22;38714;53.180;5.812;2023-02-28T05:32:21;5.30;99.90
52849;DHT22;38714;53.180;5.812;2023-02-28T05:34:47;5.30;99.90
52849;DHT22;38714;53.180;5.812;2023-02-28T05:37:13;5.40;99.90
52849;DHT22;38714;53.180;5.812;2023-02-28T05:39:39;5.30;99.90
52849;DHT22;38714;53.180;5.812;2023-02-28T05:42:05;5.30;99.90
52849;DHT22;38714;53.180;5.812;2023-02-28T05:44:30;5.30;99.90
52849;DHT22;38714;53.180;5.812;2023-02-28T05:46:56;5.30;99.90
52849;DHT22;38714;53.180;5.812;2023-02-28T05:49:22;5.30;99.90
52849;DHT22;38714;53.180;5.812;2023-02-28T05:51:47;5.30;99.90
52849;DHT22;38714;53.180;5.812;2023-02-28T05:54:13;5.30;99.90
52849;DHT22;38714;53.180;5.812;2023-02-28T05:56:38;5.30;99.90
52849;DHT22;38714;53.180;5.812;2023-02-28T05:59:06;5.30;99.90
52849;DHT22;38714;53.180;5.812;2023-02-28T06:01:33;5.30;99.90
52849;DHT22;38714;53.180;5.812;2023-02-28T06:03:59;5.30;99.90
52849;DHT22;38714;53.180;5.812;2023-02-28T06:06:26;5.30;99.90
52849;DHT22;38714;53.180;5.812;2023-02-28T06:08:51;5.30;99.90
52849;DHT22;38714;53.180;5.812;2023-02-28T06:11:20;5.30;99.90
52849;DHT22;38714;53.180;5.812;2023-02-28T06:13:47;5.20;99.90
52849;DHT22;38714;53.180;5.812;2023-02-28T06:16:12;5.20;99.90
52849;DHT22;38714;53.180;5.812;2023-02-28T06:18:38;5.20;99.90
52849;DHT22;38714;53.180;5.812;2023-02-28T06:21:04;5.10;99.90
52849;DHT22;38714;53.180;5.812;2023-02-28T06:23:30;5.10;99.90
52849;DHT22;38714;53.180;5.812;2023-02-28T06:25:56;5.00;99.90
52849;DHT22;38714;53.180;5.812;2023-02-28T06:28:24;5.00;99.90
52849;DHT22;38714;53.180;5.812;2023-02-28T06:30:50;4.90;99.90
52849;DHT22;38714;53.180;5.812;2023-02-28T06:33:16;4.90;99.90
52849;DHT22;38714;53.180;5.812;2023-02-28T06:35:44;4.80;99.90
52849;DHT22;38714;53.180;5.812;2023-02-28T06:38:11;4.80;99.90
52849;DHT22;38714;53.180;5.812;2023-02-28T06:40:37;4.70;99.90
52849;DHT22;38714;53.180;5.812;2023-02-28T06:43:03;4.70;99.90
52849;DHT22;38714;53.180;5.812;2023-02-28T06:45:29;4.70;99.90
52849;DHT22;38714;53.180;5.812;2023-02-28T06:47:55;4.60;99.90
52849;DHT22;38714;53.180;5.812;2023-02-28T06:50:20;4.60;99.90
52849;DHT22;38714;53.180;5.812;2023-02-28T06:52:46;4.60;99.90
52849;DHT22;38714;53.180;5.812;2023-02-28T06:55:12;4.50;99.90
52849;DHT22;38714;53.180;5.812;2023-02-28T06:57:38;4.50;99.90
52849;DHT22;38714;53.180;5.812;2023-02-28T07:00:07;4.50;99.90
52849;DHT22;38714;53.180;5.812;2023-02-28T07:02:35;4.50;99.90
52849;DHT22;38714;53.180;5.812;2023-02-28T07:05:01;4.50;99.90
52849;DHT22;38714;53.180;5.812;2023-02-28T07:07:26;4.40;99.90
52849;DHT22;38714;53.180;5.812;2023-02-28T07:09:52;4.40;99.90
52849;DHT22;38714;53.180;5.812;2023-02-28T07:12:18;4.40;99.90
52849;DHT22;38714;53.180;5.812;2023-02-28T07:14:43;4.40;99.90
52849;DHT22;38714;53.180;5.812;2023-02-28T07:17:10;4.40;99.90
52849;DHT22;38714;53.180;5.812;2023-02-28T07:19:37;4.30;99.90
52849;DHT22;38714;53.180;5.812;2023-02-28T07:22:03;4.30;99.90
52849;DHT22;38714;53.180;5.812;2023-02-28T07:24:29;4.30;99.90
52849;DHT22;38714;53.180;5.812;2023-02-28T07:26:55;4.30;99.90
52849;DHT22;38714;53.180;5.812;2023-02-28T07:29:21;4.30;99.90
52849;DHT22;38714;53.180;5.812;2023-02-28T07:31:46;4.20;99.90
52849;DHT22;38714;53.180;5.812;2023-02-28T07:34:13;4.20;99.90
52849;DHT22;38714;53.180;5.812;2023-02-28T07:36:39;4.20;99.90
52849;DHT22;38714;53.180;5.812;2023-02-28T07:39:04;4.20;99.90
52849;DHT22;38714;53.180;5.812;2023-02-28T07:41:30;4.20;99.90
52849;DHT22;38714;53.180;5.812;2023-02-28T07:43:59;4.20;99.90
52849;DHT22;38714;53.180;5.812;2023-02-28T07:46:25;4.10;99.90
52849;DHT22;38714;53.180;5.812;2023-02-28T07:48:51;4.10;99.90
52849;DHT22;38714;53.180;5.812;2023-02-28T07:51:18;4.10;99.90
52849;DHT22;38714;53.180;5.812;2023-02-28T07:53:44;4.00;99.90
52849;DHT22;38714;53.180;5.812;2023-02-28T07:56:10;4.00;99.90
52849;DHT22;38714;53.180;5.812;2023-02-28T07:58:36;4.00;99.90
52849;DHT22;38714;53.180;5.812;2023-02-28T08:01:07;4.00;99.90
52849;DHT22;38714;53.180;5.812;2023-02-28T08:03:33;4.00;99.90
52849;DHT22;38714;53.180;5.812;2023-02-28T08:05:59;4.00;99.90
52849;DHT22;38714;53.180;5.812;2023-02-28T08:08:24;4.00;99.90
52849;DHT22;38714;53.180;5.812;2023-02-28T08:10:54;4.00;99.90
52849;DHT22;38714;53.180;5.812;2023-02-28T08:13:20;4.00;99.90
52849;DHT22;38714;53.180;5.812;2023-02-28T08:15:45;4.00;99.90
52849;DHT22;38714;53.180;5.812;2023-02-28T08:18:12;4.00;99.90
52849;DHT22;38714;53.180;5.812;2023-02-28T08:20:38;4.00;99.90
52849;DHT22;38714;53.180;5.812;2023-02-28T08:23:03;4.00;99.90
52849;DHT22;38714;53.180;5.812;2023-02-28T08:25:29;4.00;99.90
52849;DHT22;38714;53.180;5.812;2023-02-28T08:27:54;4.00;99.90
52849;DHT22;38714;53.180;5.812;2023-02-28T08:30:20;4.00;99.90
52849;DHT22;38714;53.180;5.812;2023-02-28T08:32:46;4.10;99.90
52849;DHT22;38714;53.180;5.812;2023-02-28T08:35:11;4.10;99.90
52849;DHT22;38714;53.180;5.812;2023-02-28T08:37:37;4.00;99.90
52849;DHT22;38714;53.180;5.812;2023-02-28T08:40:03;4.10;99.90
52849;DHT22;38714;53.180;5.812;2023-02-28T08:42:32;4.10;99.90
52849;DHT22;38714;53.180;5.812;2023-02-28T08:44:58;4.10;99.90
52849;DHT22;38714;53.180;5.812;2023-02-28T08:47:23;4.10;99.90
52849;DHT22;38714;53.180;5.812;2023-02-28T08:49:49;4.10;99.90
52849;DHT22;38714;53.180;5.812;2023-02-28T08:52:15;4.10;99.90
52849;DHT22;38714;53.180;5.812;2023-02-28T08:54:40;4.10;99.90
52849;DHT22;38714;53.180;5.812;2023-02-28T08:57:06;4.10;99.90
52849;DHT22;38714;53.180;5.812;2023-02-28T08:59:32;4.10;99.90
52849;DHT22;38714;53.180;5.812;2023-02-28T09:01:58;4.20;99.90
52849;DHT22;38714;53.180;5.812;2023-02-28T09:04:23;4.20;99.90
52849;DHT22;38714;53.180;5.812;2023-02-28T09:06:49;4.20;99.90
52849;DHT22;38714;53.180;5.812;2023-02-28T09:09:15;4.20;99.90
52849;DHT22;38714;53.180;5.812;2023-02-28T09:11:40;4.20;99.90
52849;DHT22;38714;53.180;5.812;2023-02-28T09:14:06;4.30;99.90
52849;DHT22;38714;53.180;5.812;2023-02-28T09:16:34;4.30;99.90
52849;DHT22;38714;53.180;5.812;2023-02-28T09:19:00;4.30;99.90
52849;DHT22;38714;53.180;5.812;2023-02-28T09:21:26;4.30;99.90
52849;DHT22;38714;53.180;5.812;2023-02-28T09:23:52;4.30;99.90
52849;DHT22;38714;53.180;5.812;2023-02-28T09:26:24;4.30;99.90
52849;DHT22;38714;53.180;5.812;2023-02-28T09:28:50;4.40;99.90
52849;DHT22;38714;53.180;5.812;2023-02-28T09:31:20;4.40;99.90
52849;DHT22;38714;53.180;5.812;2023-02-28T09:33:47;4.50;99.90
52849;DHT22;38714;53.180;5.812;2023-02-28T09:36:12;4.50;99.90
52849;DHT22;38714;53.180;5.812;2023-02-28T09:38:38;4.50;99.90
52849;DHT22;38714;53.180;5.812;2023-02-28T09:41:21;4.50;99.90
52849;DHT22;38714;53.180;5.812;2023-02-28T09:43:51;4.60;99.90
52849;DHT22;38714;53.180;5.812;2023-02-28T09:46:34;4.70;99.90
52849;DHT22;38714;53.180;5.812;2023-02-28T09:49:06;4.70;99.90
52849;DHT22;38714;53.180;5.812;2023-02-28T09:54:18;4.80;99.90
52849;DHT22;38714;53.180;5.812;2023-02-28T09:56:48;4.80;99.90
52849;DHT22;38714;53.180;5.812;2023-02-28T10:04:58;4.90;99.90
52849;DHT22;38714;53.180;5.812;2023-02-28T10:10:38;5.00;99.90
52849;DHT22;38714;53.180;5.812;2023-02-28T10:13:12;5.00;99.90
52849;DHT22;38714;53.180;5.812;2023-02-28T10:15:39;5.00;99.90
52849;DHT22;38714;53.180;5.812;2023-02-28T10:18:08;5.10;99.90
52849;DHT22;38714;53.180;5.812;2023-02-28T10:20:38;5.10;99.90
52849;DHT22;38714;53.180;5.812;2023-02-28T10:25:45;5.20;99.90
52849;DHT22;38714;53.180;5.812;2023-02-28T10:28:16;5.20;99.90
52849;DHT22;38714;53.180;5.812;2023-02-28T10:30:51;5.20;99.90
52849;DHT22;38714;53.180;5.812;2023-02-28T10:33:21;5.30;99.90
52849;DHT22;38714;53.180;5.812;2023-02-28T10:35:47;5.30;99.90
52849;DHT22;38714;53.180;5.812;2023-02-28T10:38:23;5.40;99.90
52849;DHT22;38714;53.180;5.812;2023-02-28T10:40:49;5.40;99.90
52849;DHT22;38714;53.180;5.812;2023-02-28T10:43:19;5.50;99.90
52849;DHT22;38714;53.180;5.812;2023-02-28T10:46:13;5.60;99.90
52849;DHT22;38714;53.180;5.812;2023-02-28T10:48:45;5.60;99.90
52849;DHT22;38714;53.180;5.812;2023-02-28T10:51:18;5.70;99.90
52849;DHT22;38714;53.180;5.812;2023-02-28T10:53:54;5.70;99.90
52849;DHT22;38714;53.180;5.812;2023-02-28T10:56:22;5.70;99.90
52849;DHT22;38714;53.180;5.812;2023-02-28T10:59:08;5.80;99.90
52849;DHT22;38714;53.180;5.812;2023-02-28T11:01:47;5.80;99.90
52849;DHT22;38714;53.180;5.812;2023-02-28T11:04:33;5.80;99.90
52849;DHT22;38714;53.180;5.812;2023-02-28T11:07:19;5.80;99.90
52849;DHT22;38714;53.180;5.812;2023-02-28T11:09:55;5.90;99.90
52849;DHT22;38714;53.180;5.812;2023-02-28T11:12:38;5.90;99.90
52849;DHT22;38714;53.180;5.812;2023-02-28T11:15:28;6.00;99.90
52849;DHT22;38714;53.180;5.812;2023-02-28T11:20:38;6.20;99.90
52849;DHT22;38714;53.180;5.812;2023-02-28T11:23:05;6.20;99.90
52849;DHT22;38714;53.180;5.812;2023-02-28T11:25:37;6.30;99.90
52849;DHT22;38714;53.180;5.812;2023-02-28T11:28:06;6.30;99.90
52849;DHT22;38714;53.180;5.812;2023-02-28T11:30:41;6.30;99.90
52849;DHT22;38714;53.180;5.812;2023-02-28T11:33:39;6.20;99.90
52849;DHT22;38714;53.180;5.812;2023-02-28T11:38:54;6.20;99.90
52849;DHT22;38714;53.180;5.812;2023-02-28T11:55:37;6.20;99.90
52849;DHT22;38714;53.180;5.812;2023-02-28T11:58:26;6.20;99.90
52849;DHT22;38714;53.180;5.812;2023-02-28T12:03:47;6.20;99.90
52849;DHT22;38714;53.180;5.812;2023-02-28T12:11:55;6.20;99.90
52849;DHT22;38714;53.180;5.812;2023-02-28T12:26:00;6.20;99.90
52849;DHT22;38714;53.180;5.812;2023-02-28T12:28:33;6.20;99.90
52849;DHT22;38714;53.180;5.812;2023-02-28T12:31:19;6.20;99.90
52849;DHT22;38714;53.180;5.812;2023-02-28T12:33:48;6.20;99.90
52849;DHT22;38714;53.180;5.812;2023-02-28T12:36:18;6.20;99.90
52849;DHT22;38714;53.180;5.812;2023-02-28T12:39:00;6.30;99.90
52849;DHT22;38714;53.180;5.812;2023-02-28T12:44:06;6.40;99.90
52849;DHT22;38714;53.180;5.812;2023-02-28T12:46:41;6.40;99.90
52849;DHT22;38714;53.180;5.812;2023-02-28T12:49:19;6.40;99.90
52849;DHT22;38714;53.180;5.812;2023-02-28T12:51:47;6.40;99.90
52849;DHT22;38714;53.180;5.812;2023-02-28T12:59:43;6.40;99.90
52849;DHT22;38714;53.180;5.812;2023-02-28T13:10:49;6.30;99.90
52849;DHT22;38714;53.180;5.812;2023-02-28T13:13:28;6.30;99.90
52849;DHT22;38714;53.180;5.812;2023-02-28T13:16:06;6.20;99.90
52849;DHT22;38714;53.180;5.812;2023-02-28T13:21:00;6.20;99.90
52849;DHT22;38714;53.180;5.812;2023-02-28T13:26:12;6.20;99.90
52849;DHT22;38714;53.180;5.812;2023-02-28T13:28:58;6.20;99.90
52849;DHT22;38714;53.180;5.812;2023-02-28T13:31:24;6.20;99.90
52849;DHT22;38714;53.180;5.812;2023-02-28T13:36:27;6.30;99.90
52849;DHT22;38714;53.180;5.812;2023-02-28T13:38:58;6.30;99.90
52849;DHT22;38714;53.180;5.812;2023-02-28T13:44:09;6.40;99.90
52849;DHT22;38714;53.180;5.812;2023-02-28T14:02:54;6.60;99.90
52849;DHT22;38714;53.180;5.812;2023-02-28T14:05:26;6.60;99.90
52849;DHT22;38714;53.180;5.812;2023-02-28T14:07:57;6.60;99.90
52849;DHT22;38714;53.180;5.812;2023-02-28T14:10:43;6.70;99.90
52849;DHT22;38714;53.180;5.812;2023-02-28T14:13:14;6.60;99.90
52849;DHT22;38714;53.180;5.812;2023-02-28T14:16:02;6.60;99.90
52849;DHT22;38714;53.180;5.812;2023-02-28T14:18:37;6.60;99.90
52849;DHT22;38714;53.180;5.812;2023-02-28T14:21:32;6.60;99.90
52849;DHT22;38714;53.180;5.812;2023-02-28T14:32:19;6.60;99.90
52849;DHT22;38714;53.180;5.812;2023-02-28T14:34:57;6.60;99.90
52849;DHT22;38714;53.180;5.812;2023-02-28T14:37:33;6.60;99.90
52849;DHT22;38714;53.180;5.812;2023-02-28T14:40:03;6.60;99.90
52849;DHT22;38714;53.180;5.812;2023-02-28T14:42:35;6.60;99.90
52849;DHT22;38714;53.180;5.812;2023-02-28T14:45:03;6.50;99.90
52849;DHT22;38714;53.180;5.812;2023-02-28T14:47:33;6.50;99.90
52849;DHT22;38714;53.180;5.812;2023-02-28T14:50:01;6.50;99.90
52849;DHT22;38714;53.180;5.812;2023-02-28T14:52:31;6.50;99.90
52849;DHT22;38714;53.180;5.812;2023-02-28T14:55:00;6.40;99.90
52849;DHT22;38714;53.180;5.812;2023-02-28T14:57:29;6.40;99.90
52849;DHT22;38714;53.180;5.812;2023-02-28T15:02:33;6.50;99.90
52849;DHT22;38714;53.180;5.812;2023-02-28T15:05:24;6.40;99.90
52849;DHT22;38714;53.180;5.812;2023-02-28T15:08:22;6.40;99.90
52849;DHT22;38714;53.180;5.812;2023-02-28T15:10:53;6.40;99.90
52849;DHT22;38714;53.180;5.812;2023-02-28T15:13:19;6.40;99.90
52849;DHT22;38714;53.180;5.812;2023-02-28T15:15:57;6.30;99.90
52849;DHT22;38714;53.180;5.812;2023-02-28T15:21:03;6.30;99.90
52849;DHT22;38714;53.180;5.812;2023-02-28T15:23:31;6.30;99.90
52849;DHT22;38714;53.180;5.812;2023-02-28T15:25:57;6.30;99.90
52849;DHT22;38714;53.180;5.812;2023-02-28T15:28:24;6.30;99.90
52849;DHT22;38714;53.180;5.812;2023-02-28T15:31:01;6.30;99.90
52849;DHT22;38714;53.180;5.812;2023-02-28T15:33:29;6.30;99.90
52849;DHT22;38714;53.180;5.812;2023-02-28T15:36:14;6.30;99.90
52849;DHT22;38714;53.180;5.812;2023-02-28T15:38:41;6.30;99.90
52849;DHT22;38714;53.180;5.812;2023-02-28T15:41:25;6.30;99.90
52849;DHT22;38714;53.180;5.812;2023-02-28T15:44:22;6.30;99.90
52849;DHT22;38714;53.180;5.812;2023-02-28T15:47:06;6.30;99.90
52849;DHT22;38714;53.180;5.812;2023-02-28T15:49:44;6.30;99.90
52849;DHT22;38714;53.180;5.812;2023-02-28T15:52:14;6.20;99.90
52849;DHT22;38714;53.180;5.812;2023-02-28T15:54:41;6.20;99.90
52849;DHT22;38714;53.180;5.812;2023-02-28T15:57:14;6.20;99.90
52849;DHT22;38714;53.180;5.812;2023-02-28T15:59:49;6.20;99.90
52849;DHT22;38714;53.180;5.812;2023-02-28T16:02:21;6.20;99.90
52849;DHT22;38714;53.180;5.812;2023-02-28T16:05:00;6.10;99.90
52849;DHT22;38714;53.180;5.812;2023-02-28T16:07:27;6.10;99.90
52849;DHT22;38714;53.180;5.812;2023-02-28T16:09:53;6.10;99.90
52849;DHT22;38714;53.180;5.812;2023-02-28T16:12:20;6.10;99.90
52849;DHT22;38714;53.180;5.812;2023-02-28T16:14:48;6.10;99.90
52849;DHT22;38714;53.180;5.812;2023-02-28T16:17:20;6.10;99.90
52849;DHT22;38714;53.180;5.812;2023-02-28T16:19:46;6.10;99.90
52849;DHT22;38714;53.180;5.812;2023-02-28T16:22:12;6.10;99.90
52849;DHT22;38714;53.180;5.812;2023-02-28T16:24:37;6.10;99.90
52849;DHT22;38714;53.180;5.812;2023-02-28T16:27:05;6.10;99.90
52849;DHT22;38714;53.180;5.812;2023-02-28T16:29:33;6.10;99.90
52849;DHT22;38714;53.180;5.812;2023-02-28T16:32:00;6.00;99.90
52849;DHT22;38714;53.180;5.812;2023-02-28T16:34:25;6.10;99.90
52849;DHT22;38714;53.180;5.812;2023-02-28T16:36:51;6.00;99.90
52849;DHT22;38714;53.180;5.812;2023-02-28T16:39:17;6.00;99.90
52849;DHT22;38714;53.180;5.812;2023-02-28T16:41:45;6.00;99.90
52849;DHT22;38714;53.180;5.812;2023-02-28T16:44:19;5.90;99.90
52849;DHT22;38714;53.180;5.812;2023-02-28T16:46:46;5.90;99.90
52849;DHT22;38714;53.180;5.812;2023-02-28T16:49:12;5.90;99.90
52849;DHT22;38714;53.180;5.812;2023-02-28T16:51:38;5.80;99.90
52849;DHT22;38714;53.180;5.812;2023-02-28T16:54:04;5.80;99.90
52849;DHT22;38714;53.180;5.812;2023-02-28T16:56:29;5.80;99.90
52849;DHT22;38714;53.180;5.812;2023-02-28T16:58:59;5.80;99.90
52849;DHT22;38714;53.180;5.812;2023-02-28T17:01:25;5.70;99.90
52849;DHT22;38714;53.180;5.812;2023-02-28T17:03:53;5.70;99.90
52849;DHT22;38714;53.180;5.812;2023-02-28T17:06:27;5.60;99.90
52849;DHT22;38714;53.180;5.812;2023-02-28T17:08:56;5.60;99.90
52849;DHT22;38714;53.180;5.812;2023-02-28T17:11:23;5.60;99.90
52849;DHT22;38714;53.180;5.812;2023-02-28T17:13:52;5.50;99.90
52849;DHT22;38714;53.180;5.812;2023-02-28T17:16:28;5.50;99.90
52849;DHT22;38714;53.180;5.812;2023-02-28T17:18:57;5.50;99.90
52849;DHT22;38714;53.180;5.812;2023-02-28T17:21:23;5.40;99.90
52849;DHT22;38714;53.180;5.812;2023-02-28T17:23:49;5.40;99.90
52849;DHT22;38714;53.180;5.812;2023-02-28T17:26:16;5.40;99.90
52849;DHT22;38714;53.180;5.812;2023-02-28T17:28:50;5.30;99.90
52849;DHT22;38714;53.180;5.812;2023-02-28T17:31:17;5.30;99.90
52849;DHT22;38714;53.180;5.812;2023-02-28T17:33:43;5.30;99.90
52849;DHT22;38714;53.180;5.812;2023-02-28T17:36:16;5.30;99.90
52849;DHT22;38714;53.180;5.812;2023-02-28T17:38:43;5.20;99.90
52849;DHT22;38714;53.180;5.812;2023-02-28T17:41:11;5.20;99.90
52849;DHT22;38714;53.180;5.812;2023-02-28T17:43:37;5.20;99.90
52849;DHT22;38714;53.180;5.812;2023-02-28T17:46:03;5.10;99.90
52849;DHT22;38714;53.180;5.812;2023-02-28T17:48:30;5.00;99.90
52849;DHT22;38714;53.180;5.812;2023-02-28T17:50:56;5.00;99.90
52849;DHT22;38714;53.180;5.812;2023-02-28T17:53:22;5.00;99.90
52849;DHT22;38714;53.180;5.812;2023-02-28T17:55:49;4.90;99.90
52849;DHT22;38714;53.180;5.812;2023-02-28T17:58:14;4.90;99.90
52849;DHT22;38714;53.180;5.812;2023-02-28T18:00:40;4.90;99.90
52849;DHT22;38714;53.180;5.812;2023-02-28T18:03:06;4.90;99.90
52849;DHT22;38714;53.180;5.812;2023-02-28T18:05:32;4.90;99.90
52849;DHT22;38714;53.180;5.812;2023-02-28T18:07:58;4.80;99.90
52849;DHT22;38714;53.180;5.812;2023-02-28T18:10:23;4.80;99.90
52849;DHT22;38714;53.180;5.812;2023-02-28T18:12:50;4.80;99.90
52849;DHT22;38714;53.180;5.812;2023-02-28T18:15:18;4.80;99.90
52849;DHT22;38714;53.180;5.812;2023-02-28T18:17:46;4.70;99.90
52849;DHT22;38714;53.180;5.812;2023-02-28T18:20:12;4.70;99.90
52849;DHT22;38714;53.180;5.812;2023-02-28T18:22:39;4.70;99.90
52849;DHT22;38714;53.180;5.812;2023-02-28T18:25:06;4.70;99.90
52849;DHT22;38714;53.180;5.812;2023-02-28T18:27:37;4.60;99.90
52849;DHT22;38714;53.180;5.812;2023-02-28T18:30:03;4.50;99.90